sensor_id;sensor_type;location;lat;lon;timestamp;pressure;altitude;pressure_sealevel;temperature;humidity
40592;BME280;26301;42.832;23.918;2022-09-09T00:04:42;93409.75;;;14.03;100.00
40592;BME280;26301;42.832;23.918;2022-09-09T00:13:32;93400.63;;;14.01;100.00
40592;BME280;26301;42.832;23.918;2022-09-09T00:21:33;93380.25;;;13.82;100.00
40592;BME280;26301;42.832;23.918;2022-09-09T00:24:00;93392.31;;;13.99;100.00
40592;BME280;26301;42.832;23.918;2022-09-09T00:26:35;93390.19;;;13.90;100.00
40592;BME280;26301;42.832;23.918;2022-09-09T00:32:00;93380.97;;;13.72;100.00
40592;BME280;26301;42.832;23.918;2022-09-09T00:34:32;93381.56;;;13.85;100.00
40592;BME280;26301;42.832;23.918;2022-09-09T00:36:59;93376.06;;;13.76;100.00
40592;BME280;26301;42.832;23.918;2022-09-09T00:39:34;93394.50;;;13.80;100.00
40592;BME280;26301;42.832;23.918;2022-09-09T00:42:25;93384.91;;;13.80;100.00
40592;BME280;26301;42.832;23.918;2022-09-09T00:45:05;93380.75;;;13.79;100.00
40592;BME280;26301;42.832;23.918;2022-09-09T00:47:46;93364.63;;;13.77;100.00
40592;BME280;26301;42.832;23.918;2022-09-09T00:56:27;93321.84;;;13.47;100.00
40592;BME280;26301;42.832;23.918;2022-09-09T00:59:28;93351.09;;;13.70;100.00
40592;BME280;26301;42.832;23.918;2022-09-09T01:02:07;93319.19;;;13.37;100.00
40592;BME280;26301;42.832;23.918;2022-09-09T01:04:39;93336.84;;;13.40;100.00
40592;BME280;26301;42.832;23.918;2022-09-09T01:07:16;93350.22;;;13.59;100.00
40592;BME280;26301;42.832;23.918;2022-09-09T01:09:54;93356.94;;;13.55;100.00
40592;BME280;26301;42.832;23.918;2022-09-09T01:12:41;93356.13;;;13.49;100.00
40592;BME280;26301;42.832;23.918;2022-09-09T01:15:21;93330.72;;;13.24;100.00
40592;BME280;26301;42.832;23.918;2022-09-09T01:18:08;93337.06;;;13.34;100.00
40592;BME280;26301;42.832;23.918;2022-09-09T01:23:38;93356.41;;;13.53;100.00
40592;BME280;26301;42.832;23.918;2022-09-09T01:26:30;93356.63;;;13.46;100.00
40592;BME280;26301;42.832;23.918;2022-09-09T01:28:55;93337.34;;;13.37;100.00
40592;BME280;26301;42.832;23.918;2022-09-09T01:31:38;93351.22;;;13.53;100.00
40592;BME280;26301;42.832;23.918;2022-09-09T01:34:14;93345.81;;;13.60;100.00
40592;BME280;26301;42.832;23.918;2022-09-09T01:39:17;93345.75;;;13.49;100.00
40592;BME280;26301;42.832;23.918;2022-09-09T01:41:44;93312.03;;;13.22;100.00
40592;BME280;26301;42.832;23.918;2022-09-09T01:44:11;93344.41;;;13.42;100.00
40592;BME280;26301;42.832;23.918;2022-09-09T01:46:37;93335.00;;;13.36;100.00
40592;BME280;26301;42.832;23.918;2022-09-09T01:49:06;93339.44;;;13.40;100.00
40592;BME280;26301;42.832;23.918;2022-09-09T01:51:33;93318.31;;;13.26;100.00
40592;BME280;26301;42.832;23.918;2022-09-09T01:54:01;93341.47;;;13.33;100.00
40592;BME280;26301;42.832;23.918;2022-09-09T02:02:24;93338.59;;;13.35;100.00
40592;BME280;26301;42.832;23.918;2022-09-09T02:07:50;93338.59;;;13.35;100.00
40592;BME280;26301;42.832;23.918;2022-09-09T02:10:24;93313.56;;;13.23;100.00
40592;BME280;26301;42.832;23.918;2022-09-09T02:13:20;93360.25;;;13.45;100.00
40592;BME280;26301;42.832;23.918;2022-09-09T02:15:48;93358.63;;;13.39;100.00
40592;BME280;26301;42.832;23.918;2022-09-09T02:18:21;93354.13;;;13.30;100.00
40592;BME280;26301;42.832;23.918;2022-09-09T02:20:51;93352.28;;;13.25;100.00
40592;BME280;26301;42.832;23.918;2022-09-09T02:23:19;93331.72;;;13.18;100.00
40592;BME280;26301;42.832;23.918;2022-09-09T02:25:49;93344.50;;;13.25;100.00
40592;BME280;26301;42.832;23.918;2022-09-09T02:28:19;93342.91;;;13.24;100.00
40592;BME280;26301;42.832;23.918;2022-09-09T02:30:48;93344.00;;;13.28;100.00
40592;BME280;26301;42.832;23.918;2022-09-09T02:33:25;93347.63;;;13.27;100.00
40592;BME280;26301;42.832;23.918;2022-09-09T02:35:53;93357.66;;;13.23;100.00
40592;BME280;26301;42.832;23.918;2022-09-09T02:38:25;93346.72;;;13.16;100.00
40592;BME280;26301;42.832;23.918;2022-09-09T02:40:52;93339.22;;;13.20;100.00
40592;BME280;26301;42.832;23.918;2022-09-09T02:43:18;93350.16;;;13.22;100.00
40592;BME280;26301;42.832;23.918;2022-09-09T02:51:18;93358.03;;;13.32;100.00
40592;BME280;26301;42.832;23.918;2022-09-09T02:54:14;93356.66;;;13.24;100.00
40592;BME280;26301;42.832;23.918;2022-09-09T02:56:47;93354.38;;;13.28;100.00
40592;BME280;26301;42.832;23.918;2022-09-09T02:59:16;93325.97;;;13.16;100.00
40592;BME280;26301;42.832;23.918;2022-09-09T03:01:43;93349.47;;;13.32;100.00
40592;BME280;26301;42.832;23.918;2022-09-09T03:04:10;93341.16;;;13.30;100.00
40592;BME280;26301;42.832;23.918;2022-09-09T03:06:37;93347.47;;;13.39;100.00
40592;BME280;26301;42.832;23.918;2022-09-09T03:09:03;93339.44;;;13.40;100.00
40592;BME280;26301;42.832;23.918;2022-09-09T03:11:29;93322.50;;;13.33;100.00
40592;BME280;26301;42.832;23.918;2022-09-09T03:13:56;93347.22;;;13.40;100.00
40592;BME280;26301;42.832;23.918;2022-09-09T03:16:23;93327.66;;;13.27;100.00
40592;BME280;26301;42.832;23.918;2022-09-09T03:18:49;93346.41;;;13.35;100.00
40592;BME280;26301;42.832;23.918;2022-09-09T03:21:16;93341.41;;;13.28;100.00
40592;BME280;26301;42.832;23.918;2022-09-09T03:23:44;93317.38;;;13.11;100.00
40592;BME280;26301;42.832;23.918;2022-09-09T03:26:10;93326.88;;;13.00;100.00
40592;BME280;26301;42.832;23.918;2022-09-09T03:28:37;93328.97;;;13.03;100.00
40592;BME280;26301;42.832;23.918;2022-09-09T03:31:04;93350.34;;;13.15;100.00
40592;BME280;26301;42.832;23.918;2022-09-09T03:33:31;93326.66;;;13.07;100.00
40592;BME280;26301;42.832;23.918;2022-09-09T03:35:58;93350.34;;;13.15;100.00
40592;BME280;26301;42.832;23.918;2022-09-09T03:38:25;93346.72;;;13.16;100.00
40592;BME280;26301;42.832;23.918;2022-09-09T03:40:55;93319.66;;;13.07;100.00
40592;BME280;26301;42.832;23.918;2022-09-09T03:43:23;93352.56;;;13.29;100.00
40592;BME280;26301;42.832;23.918;2022-09-09T03:45:50;93339.00;;;13.21;100.00
40592;BME280;26301;42.832;23.918;2022-09-09T03:48:17;93332.22;;;13.20;100.00
40592;BME280;26301;42.832;23.918;2022-09-09T03:50:48;93349.38;;;13.21;100.00
40592;BME280;26301;42.832;23.918;2022-09-09T03:53:18;93357.16;;;13.21;100.00
40592;BME280;26301;42.832;23.918;2022-09-09T03:55:49;93332.91;;;13.11;100.00
40592;BME280;26301;42.832;23.918;2022-09-09T03:58:18;93333.69;;;13.11;100.00
40592;BME280;26301;42.832;23.918;2022-09-09T04:00:57;93334.44;;;13.07;100.00
40592;BME280;26301;42.832;23.918;2022-09-09T04:03:25;93360.75;;;13.20;100.00
40592;BME280;26301;42.832;23.918;2022-09-09T04:05:52;93348.47;;;13.11;100.00
40592;BME280;26301;42.832;23.918;2022-09-09T04:08:20;93337.81;;;13.07;100.00
40592;BME280;26301;42.832;23.918;2022-09-09T04:10:47;93352.13;;;13.10;100.00
40592;BME280;26301;42.832;23.918;2022-09-09T04:13:15;93356.81;;;13.13;100.00
40592;BME280;26301;42.832;23.918;2022-09-09T04:15:44;93338.31;;;13.04;100.00
40592;BME280;26301;42.832;23.918;2022-09-09T04:18:15;93343.59;;;13.14;100.00
40592;BME280;26301;42.832;23.918;2022-09-09T04:20:41;93361.84;;;13.24;100.00
40592;BME280;26301;42.832;23.918;2022-09-09T04:23:10;93355.34;;;13.22;100.00
40592;BME280;26301;42.832;23.918;2022-09-09T04:25:37;93356.91;;;13.23;100.00
40592;BME280;26301;42.832;23.918;2022-09-09T04:28:03;93342.50;;;13.10;100.00
40592;BME280;26301;42.832;23.918;2022-09-09T04:30:29;93345.41;;;13.14;100.00
40592;BME280;26301;42.832;23.918;2022-09-09T04:32:57;93365.31;;;13.30;100.00
40592;BME280;26301;42.832;23.918;2022-09-09T04:35:23;93367.41;;;13.33;100.00
40592;BME280;26301;42.832;23.918;2022-09-09T04:37:49;93302.72;;;12.94;100.00
40592;BME280;26301;42.832;23.918;2022-09-09T04:40:15;93354.44;;;13.33;100.00
40592;BME280;26301;42.832;23.918;2022-09-09T04:42:41;93355.28;;;13.44;100.00
40592;BME280;26301;42.832;23.918;2022-09-09T04:45:09;93368.69;;;13.63;100.00
40592;BME280;26301;42.832;23.918;2022-09-09T04:47:37;93361.69;;;13.63;100.00
40592;BME280;26301;42.832;23.918;2022-09-09T04:50:05;93371.59;;;13.71;100.00
40592;BME280;26301;42.832;23.918;2022-09-09T04:52:34;93345.63;;;13.71;100.00
40592;BME280;26301;42.832;23.918;2022-09-09T04:55:09;93366.28;;;13.88;100.00
40592;BME280;26301;42.832;23.918;2022-09-09T04:57:35;93380.41;;;14.08;100.00
40592;BME280;26301;42.832;23.918;2022-09-09T05:00:01;93371.94;;;14.17;100.00
40592;BME280;26301;42.832;23.918;2022-09-09T05:02:28;93349.81;;;14.15;100.00
40592;BME280;26301;42.832;23.918;2022-09-09T05:04:56;93352.53;;;14.40;100.00
40592;BME280;26301;42.832;23.918;2022-09-09T05:07:22;93352.13;;;14.59;100.00
40592;BME280;26301;42.832;23.918;2022-09-09T05:09:48;93346.22;;;14.79;100.00
40592;BME280;26301;42.832;23.918;2022-09-09T05:12:15;93325.44;;;14.84;100.00
40592;BME280;26301;42.832;23.918;2022-09-09T05:14:42;93351.78;;;15.18;100.00
40592;BME280;26301;42.832;23.918;2022-09-09T05:17:09;93330.72;;;15.20;100.00
40592;BME280;26301;42.832;23.918;2022-09-09T05:19:36;93324.22;;;15.32;100.00
40592;BME280;26301;42.832;23.918;2022-09-09T05:22:03;93323.72;;;15.51;100.00
40592;BME280;26301;42.832;23.918;2022-09-09T05:24:30;93341.94;;;15.87;100.00
40592;BME280;26301;42.832;23.918;2022-09-09T05:26:58;93342.69;;;16.08;100.00
40592;BME280;26301;42.832;23.918;2022-09-09T05:29:27;93348.13;;;16.27;100.00
40592;BME280;26301;42.832;23.918;2022-09-09T05:31:53;93333.53;;;16.31;100.00
40592;BME280;26301;42.832;23.918;2022-09-09T05:34:19;93342.31;;;16.55;100.00
40592;BME280;26301;42.832;23.918;2022-09-09T05:36:46;93316.47;;;16.64;100.00
40592;BME280;26301;42.832;23.918;2022-09-09T05:39:12;93340.06;;;16.98;100.00
40592;BME280;26301;42.832;23.918;2022-09-09T05:41:38;93315.25;;;17.06;100.00
40592;BME280;26301;42.832;23.918;2022-09-09T05:44:05;93303.63;;;17.22;100.00
40592;BME280;26301;42.832;23.918;2022-09-09T05:46:31;93322.97;;;17.55;100.00
40592;BME280;26301;42.832;23.918;2022-09-09T05:48:57;93326.25;;;17.71;100.00
40592;BME280;26301;42.832;23.918;2022-09-09T05:51:27;93306.06;;;17.82;99.54
40592;BME280;26301;42.832;23.918;2022-09-09T05:53:56;93317.00;;;18.13;100.00
40592;BME280;26301;42.832;23.918;2022-09-09T05:56:27;93315.69;;;18.40;99.07
40592;BME280;26301;42.832;23.918;2022-09-09T05:58:54;93296.94;;;18.57;100.00
40592;BME280;26301;42.832;23.918;2022-09-09T06:01:39;93265.59;;;18.51;99.65
40592;BME280;26301;42.832;23.918;2022-09-09T06:04:07;93322.38;;;19.13;100.00
40592;BME280;26301;42.832;23.918;2022-09-09T06:06:50;93308.28;;;19.28;99.09
40592;BME280;26301;42.832;23.918;2022-09-09T06:09:16;93308.94;;;19.38;96.36
40592;BME280;26301;42.832;23.918;2022-09-09T06:11:44;93300.19;;;19.62;96.92
40592;BME280;26301;42.832;23.918;2022-09-09T06:14:11;93266.22;;;19.57;93.80
40592;BME280;26301;42.832;23.918;2022-09-09T06:16:38;93330.25;;;20.16;92.07
40592;BME280;26301;42.832;23.918;2022-09-09T06:19:04;93312.47;;;20.27;91.75
40592;BME280;26301;42.832;23.918;2022-09-09T06:21:32;93311.81;;;20.49;91.85
40592;BME280;26301;42.832;23.918;2022-09-09T06:23:59;93321.31;;;20.72;90.85
40592;BME280;26301;42.832;23.918;2022-09-09T06:26:35;93325.56;;;20.96;90.76
40592;BME280;26301;42.832;23.918;2022-09-09T06:29:02;93314.88;;;21.06;88.90
40592;BME280;26301;42.832;23.918;2022-09-09T06:31:32;93317.63;;;21.23;85.63
40592;BME280;26301;42.832;23.918;2022-09-09T06:33:59;93313.81;;;21.43;84.23
40592;BME280;26301;42.832;23.918;2022-09-09T06:36:27;93288.53;;;21.56;83.72
40592;BME280;26301;42.832;23.918;2022-09-09T06:39:03;93291.00;;;21.75;81.04
40592;BME280;26301;42.832;23.918;2022-09-09T06:41:33;93334.75;;;22.25;83.50
40592;BME280;26301;42.832;23.918;2022-09-09T06:43:59;93330.50;;;22.46;79.34
40592;BME280;26301;42.832;23.918;2022-09-09T06:46:29;93331.19;;;22.69;77.85
40592;BME280;26301;42.832;23.918;2022-09-09T06:48:58;93319.00;;;22.82;72.57
40592;BME280;26301;42.832;23.918;2022-09-09T06:51:30;93324.50;;;23.12;62.32
40592;BME280;26301;42.832;23.918;2022-09-09T06:53:58;93308.69;;;23.20;64.69
40592;BME280;26301;42.832;23.918;2022-09-09T06:56:27;93294.28;;;23.35;58.19
40592;BME280;26301;42.832;23.918;2022-09-09T06:58:59;93304.50;;;23.54;64.09
40592;BME280;26301;42.832;23.918;2022-09-09T07:01:29;93320.78;;;23.82;55.58
40592;BME280;26301;42.832;23.918;2022-09-09T07:03:57;93317.00;;;24.01;53.80
40592;BME280;26301;42.832;23.918;2022-09-09T07:06:44;93304.13;;;24.08;60.17
40592;BME280;26301;42.832;23.918;2022-09-09T07:09:13;93306.41;;;24.27;57.79
40592;BME280;26301;42.832;23.918;2022-09-09T07:11:45;93331.03;;;24.48;55.89
40592;BME280;26301;42.832;23.918;2022-09-09T07:14:15;93333.38;;;24.50;56.10
40592;BME280;26301;42.832;23.918;2022-09-09T07:16:43;93313.66;;;24.47;55.54
40592;BME280;26301;42.832;23.918;2022-09-09T07:19:15;93342.69;;;24.85;57.65
40592;BME280;26301;42.832;23.918;2022-09-09T07:21:42;93319.63;;;24.95;50.06
40592;BME280;26301;42.832;23.918;2022-09-09T07:24:08;93318.56;;;25.17;50.21
40592;BME280;26301;42.832;23.918;2022-09-09T07:26:42;93318.13;;;25.36;49.72
40592;BME280;26301;42.832;23.918;2022-09-09T07:29:11;93341.53;;;25.67;48.78
40592;BME280;26301;42.832;23.918;2022-09-09T07:31:39;93341.25;;;25.81;46.23
40592;BME280;26301;42.832;23.918;2022-09-09T07:34:06;93345.91;;;25.84;46.49
40592;BME280;26301;42.832;23.918;2022-09-09T07:36:39;93331.28;;;25.86;49.12
40592;BME280;26301;42.832;23.918;2022-09-09T07:39:13;93290.22;;;25.80;47.45
40592;BME280;26301;42.832;23.918;2022-09-09T07:41:45;93294.88;;;25.83;50.68
40592;BME280;26301;42.832;23.918;2022-09-09T07:44:13;93308.63;;;26.10;48.76
40592;BME280;26301;42.832;23.918;2022-09-09T07:46:40;93336.56;;;26.44;46.02
40592;BME280;26301;42.832;23.918;2022-09-09T07:49:09;93328.63;;;26.44;45.61
40592;BME280;26301;42.832;23.918;2022-09-09T07:51:38;93336.63;;;26.56;48.94
40592;BME280;26301;42.832;23.918;2022-09-09T07:54:09;93337.06;;;26.71;45.69
40592;BME280;26301;42.832;23.918;2022-09-09T07:56:36;93325.81;;;26.74;43.83
40592;BME280;26301;42.832;23.918;2022-09-09T07:59:03;93326.03;;;26.68;43.67
40592;BME280;26301;42.832;23.918;2022-09-09T08:01:34;93304.97;;;26.60;43.37
40592;BME280;26301;42.832;23.918;2022-09-09T08:04:08;93325.72;;;26.70;44.16
40592;BME280;26301;42.832;23.918;2022-09-09T08:06:38;93329.13;;;26.71;44.68
40592;BME280;26301;42.832;23.918;2022-09-09T08:09:06;93329.56;;;26.73;42.68
40592;BME280;26301;42.832;23.918;2022-09-09T08:11:32;93300.75;;;26.59;44.57
40592;BME280;26301;42.832;23.918;2022-09-09T08:13:58;93321.41;;;26.78;44.24
40592;BME280;26301;42.832;23.918;2022-09-09T08:16:27;93303.97;;;26.64;44.23
40592;BME280;26301;42.832;23.918;2022-09-09T08:18:56;93324.72;;;26.87;43.03
40592;BME280;26301;42.832;23.918;2022-09-09T08:21:24;93318.63;;;26.86;42.96
40592;BME280;26301;42.832;23.918;2022-09-09T08:23:55;93328.78;;;26.97;44.07
40592;BME280;26301;42.832;23.918;2022-09-09T08:26:23;93325.59;;;27.03;45.00
40592;BME280;26301;42.832;23.918;2022-09-09T08:28:52;93310.13;;;27.05;44.06
40592;BME280;26301;42.832;23.918;2022-09-09T08:31:24;93319.84;;;27.26;43.73
40592;BME280;26301;42.832;23.918;2022-09-09T08:33:51;93301.69;;;27.28;41.89
40592;BME280;26301;42.832;23.918;2022-09-09T08:36:22;93313.88;;;27.57;41.39
40592;BME280;26301;42.832;23.918;2022-09-09T08:38:50;93333.06;;;27.78;43.58
40592;BME280;26301;42.832;23.918;2022-09-09T08:44:28;93329.78;;;27.97;41.30
40592;BME280;26301;42.832;23.918;2022-09-09T08:47:08;93325.06;;;28.07;40.53
40592;BME280;26301;42.832;23.918;2022-09-09T08:49:55;93308.81;;;28.08;41.27
40592;BME280;26301;42.832;23.918;2022-09-09T08:57:51;93343.72;;;28.38;41.79
40592;BME280;26301;42.832;23.918;2022-09-09T09:00:19;93335.59;;;28.31;41.29
40592;BME280;26301;42.832;23.918;2022-09-09T09:05:47;93333.13;;;28.54;39.58
40592;BME280;26301;42.832;23.918;2022-09-09T09:10:54;93329.94;;;28.80;41.56
40592;BME280;26301;42.832;23.918;2022-09-09T09:16:19;93330.69;;;28.97;39.75
40592;BME280;26301;42.832;23.918;2022-09-09T09:18:48;93306.34;;;28.94;38.95
40592;BME280;26301;42.832;23.918;2022-09-09T09:23:58;93315.81;;;29.27;39.40
40592;BME280;26301;42.832;23.918;2022-09-09T09:26:38;93318.06;;;29.45;38.63
40592;BME280;26301;42.832;23.918;2022-09-09T09:29:16;93315.41;;;29.45;39.16
40592;BME280;26301;42.832;23.918;2022-09-09T09:31:51;93304.63;;;29.37;37.77
40592;BME280;26301;42.832;23.918;2022-09-09T09:34:18;93294.81;;;29.42;38.37
40592;BME280;26301;42.832;23.918;2022-09-09T09:36:52;93312.47;;;29.50;38.16
40592;BME280;26301;42.832;23.918;2022-09-09T09:39:27;93318.00;;;29.41;37.47
40592;BME280;26301;42.832;23.918;2022-09-09T09:41:54;93315.00;;;29.43;37.55
40592;BME280;26301;42.832;23.918;2022-09-09T09:44:30;93311.53;;;29.23;39.35
40592;BME280;26301;42.832;23.918;2022-09-09T09:47:15;93306.03;;;28.80;38.93
40592;BME280;26301;42.832;23.918;2022-09-09T09:49:54;93324.22;;;28.62;40.82
40592;BME280;26301;42.832;23.918;2022-09-09T09:52:30;93308.63;;;28.77;40.41
40592;BME280;26301;42.832;23.918;2022-09-09T09:54:58;93306.94;;;28.88;38.97
40592;BME280;26301;42.832;23.918;2022-09-09T09:57:30;93308.31;;;28.98;39.63
40592;BME280;26301;42.832;23.918;2022-09-09T10:00:17;93322.13;;;29.19;37.26
40592;BME280;26301;42.832;23.918;2022-09-09T10:02:46;93311.81;;;29.17;39.55
40592;BME280;26301;42.832;23.918;2022-09-09T10:05:23;93296.34;;;29.04;39.52
40592;BME280;26301;42.832;23.918;2022-09-09T10:08:15;93320.34;;;28.91;38.21
40592;BME280;26301;42.832;23.918;2022-09-09T10:19:42;93318.38;;;28.72;41.98
40592;BME280;26301;42.832;23.918;2022-09-09T10:22:26;93301.31;;;28.58;38.67
40592;BME280;26301;42.832;23.918;2022-09-09T10:31:09;93320.41;;;28.32;43.32
40592;BME280;26301;42.832;23.918;2022-09-09T10:34:10;93326.50;;;28.16;43.76
40592;BME280;26301;42.832;23.918;2022-09-09T10:36:52;93318.25;;;28.21;43.08
40592;BME280;26301;42.832;23.918;2022-09-09T10:39:35;93318.53;;;28.16;41.31
40592;BME280;26301;42.832;23.918;2022-09-09T10:42:08;93292.59;;;27.97;44.40
40592;BME280;26301;42.832;23.918;2022-09-09T10:50:23;93314.97;;;27.96;40.71
40592;BME280;26301;42.832;23.918;2022-09-09T10:55:51;93334.53;;;28.04;40.48
40592;BME280;26301;42.832;23.918;2022-09-09T10:58:30;93324.59;;;27.89;42.52
40592;BME280;26301;42.832;23.918;2022-09-09T11:01:06;93318.88;;;27.87;42.52
40592;BME280;26301;42.832;23.918;2022-09-09T11:03:36;93312.59;;;27.79;42.33
40592;BME280;26301;42.832;23.918;2022-09-09T11:06:09;93339.00;;;27.88;43.10
40592;BME280;26301;42.832;23.918;2022-09-09T11:08:39;93311.50;;;27.40;42.01
40592;BME280;26301;42.832;23.918;2022-09-09T11:19:39;93336.66;;;26.93;42.77
40592;BME280;26301;42.832;23.918;2022-09-09T11:22:46;93328.47;;;26.86;43.81
40592;BME280;26301;42.832;23.918;2022-09-09T11:25:21;93332.13;;;26.81;42.83
40592;BME280;26301;42.832;23.918;2022-09-09T11:30:48;93315.22;;;26.61;42.77
40592;BME280;26301;42.832;23.918;2022-09-09T11:33:53;93332.69;;;26.87;45.02
40592;BME280;26301;42.832;23.918;2022-09-09T11:42:26;93339.16;;;26.77;52.63
40592;BME280;26301;42.832;23.918;2022-09-09T11:44:52;93340.19;;;26.85;53.80
40592;BME280;26301;42.832;23.918;2022-09-09T11:47:29;93338.06;;;26.90;52.62
40592;BME280;26301;42.832;23.918;2022-09-09T11:50:31;93320.81;;;27.09;45.70
40592;BME280;26301;42.832;23.918;2022-09-09T11:55:40;93314.13;;;26.87;43.67
40592;BME280;26301;42.832;23.918;2022-09-09T11:58:16;93322.41;;;26.85;45.36
40592;BME280;26301;42.832;23.918;2022-09-09T12:04:43;93316.53;;;26.67;50.90
40592;BME280;26301;42.832;23.918;2022-09-09T12:10:35;93299.53;;;26.56;47.55
40592;BME280;26301;42.832;23.918;2022-09-09T12:13:27;93297.78;;;26.60;46.99
40592;BME280;26301;42.832;23.918;2022-09-09T12:15:57;93299.78;;;26.51;45.46
40592;BME280;26301;42.832;23.918;2022-09-09T12:18:39;93297.53;;;26.41;45.83
40592;BME280;26301;42.832;23.918;2022-09-09T12:27:24;93290.91;;;26.35;45.62
40592;BME280;26301;42.832;23.918;2022-09-09T12:30:09;93288.34;;;26.26;45.18
40592;BME280;26301;42.832;23.918;2022-09-09T12:32:38;93268.34;;;26.04;46.99
40592;BME280;26301;42.832;23.918;2022-09-09T12:35:24;93284.91;;;26.01;46.78
40592;BME280;26301;42.832;23.918;2022-09-09T12:38:01;93261.06;;;26.01;45.45
40592;BME280;26301;42.832;23.918;2022-09-09T12:40:32;93268.38;;;26.16;45.98
40592;BME280;26301;42.832;23.918;2022-09-09T12:43:22;93284.72;;;26.31;46.86
40592;BME280;26301;42.832;23.918;2022-09-09T12:45:49;93294.66;;;26.21;44.52
40592;BME280;26301;42.832;23.918;2022-09-09T12:48:38;93286.59;;;26.18;44.47
40592;BME280;26301;42.832;23.918;2022-09-09T12:51:30;93287.09;;;26.11;45.84
40592;BME280;26301;42.832;23.918;2022-09-09T12:53:59;93242.56;;;26.01;47.21
40592;BME280;26301;42.832;23.918;2022-09-09T12:56:34;93285.50;;;26.43;51.94
40592;BME280;26301;42.832;23.918;2022-09-09T12:59:02;93275.25;;;26.42;45.02
40592;BME280;26301;42.832;23.918;2022-09-09T13:01:32;93271.63;;;26.59;44.67
40592;BME280;26301;42.832;23.918;2022-09-09T13:04:01;93233.88;;;26.25;44.65
40592;BME280;26301;42.832;23.918;2022-09-09T13:06:32;93246.53;;;26.44;47.03
40592;BME280;26301;42.832;23.918;2022-09-09T13:09:02;93245.25;;;26.62;47.11
40592;BME280;26301;42.832;23.918;2022-09-09T13:11:38;93253.94;;;26.87;44.73
40592;BME280;26301;42.832;23.918;2022-09-09T13:14:06;93236.38;;;26.83;44.31
40592;BME280;26301;42.832;23.918;2022-09-09T13:16:34;93214.00;;;26.68;46.43
40592;BME280;26301;42.832;23.918;2022-09-09T13:19:17;93204.53;;;26.55;45.13
40592;BME280;26301;42.832;23.918;2022-09-09T13:21:43;93232.44;;;26.64;44.79
40592;BME280;26301;42.832;23.918;2022-09-09T13:26:59;93233.97;;;26.65;44.50
40592;BME280;26301;42.832;23.918;2022-09-09T13:29:28;93245.47;;;26.57;46.14
40592;BME280;26301;42.832;23.918;2022-09-09T13:32:04;93217.88;;;26.46;46.22
40592;BME280;26301;42.832;23.918;2022-09-09T13:34:34;93193.59;;;26.32;45.68
40592;BME280;26301;42.832;23.918;2022-09-09T13:37:38;93237.44;;;26.66;45.87
40592;BME280;26301;42.832;23.918;2022-09-09T13:40:04;93241.63;;;26.55;46.91
40592;BME280;26301;42.832;23.918;2022-09-09T13:42:39;93247.34;;;26.44;47.46
40592;BME280;26301;42.832;23.918;2022-09-09T13:45:19;93227.25;;;26.31;45.45
40592;BME280;26301;42.832;23.918;2022-09-09T13:47:46;93249.44;;;26.39;46.73
40592;BME280;26301;42.832;23.918;2022-09-09T13:50:29;93253.63;;;26.40;46.61
40592;BME280;26301;42.832;23.918;2022-09-09T13:52:56;93226.69;;;26.26;46.56
40592;BME280;26301;42.832;23.918;2022-09-09T13:55:28;93202.41;;;26.11;46.54
40592;BME280;26301;42.832;23.918;2022-09-09T13:58:02;93227.91;;;26.28;49.52
40592;BME280;26301;42.832;23.918;2022-09-09T14:00:31;93221.19;;;26.06;48.28
40592;BME280;26301;42.832;23.918;2022-09-09T14:02:58;93242.56;;;26.26;46.29
40592;BME280;26301;42.832;23.918;2022-09-09T14:05:27;93255.38;;;26.23;46.50
40592;BME280;26301;42.832;23.918;2022-09-09T14:07:53;93257.69;;;26.13;46.65
40592;BME280;26301;42.832;23.918;2022-09-09T14:10:19;93236.38;;;25.97;47.59
40592;BME280;26301;42.832;23.918;2022-09-09T14:12:46;93235.47;;;25.93;48.13
40592;BME280;26301;42.832;23.918;2022-09-09T14:15:12;93230.09;;;26.02;47.51
40592;BME280;26301;42.832;23.918;2022-09-09T14:17:39;93222.47;;;25.88;46.75
40592;BME280;26301;42.832;23.918;2022-09-09T14:20:06;93228.34;;;25.93;47.16
40592;BME280;26301;42.832;23.918;2022-09-09T14:22:35;93229.75;;;25.91;47.24
40592;BME280;26301;42.832;23.918;2022-09-09T14:25:03;93227.53;;;25.93;48.51
40592;BME280;26301;42.832;23.918;2022-09-09T14:27:33;93245.97;;;26.02;48.04
40592;BME280;26301;42.832;23.918;2022-09-09T14:30:00;93224.13;;;25.92;47.99
40592;BME280;26301;42.832;23.918;2022-09-09T14:32:27;93234.06;;;25.95;47.94
40592;BME280;26301;42.832;23.918;2022-09-09T14:34:53;93245.84;;;25.98;48.20
40592;BME280;26301;42.832;23.918;2022-09-09T14:37:19;93239.03;;;25.97;47.51
40592;BME280;26301;42.832;23.918;2022-09-09T14:39:46;93238.56;;;25.95;49.35
40592;BME280;26301;42.832;23.918;2022-09-09T14:42:13;93240.13;;;25.96;48.92
40592;BME280;26301;42.832;23.918;2022-09-09T14:44:39;93235.28;;;25.98;48.77
40592;BME280;26301;42.832;23.918;2022-09-09T14:47:06;93242.66;;;26.05;50.93
40592;BME280;26301;42.832;23.918;2022-09-09T14:49:34;93225.81;;;25.97;48.01
40592;BME280;26301;42.832;23.918;2022-09-09T14:52:01;93238.81;;;26.02;48.42
40592;BME280;26301;42.832;23.918;2022-09-09T14:54:27;93222.91;;;25.90;48.48
40592;BME280;26301;42.832;23.918;2022-09-09T14:56:53;93236.72;;;26.08;46.89
40592;BME280;26301;42.832;23.918;2022-09-09T14:59:19;93214.66;;;25.91;47.66
40592;BME280;26301;42.832;23.918;2022-09-09T15:01:45;93232.06;;;25.92;48.74
40592;BME280;26301;42.832;23.918;2022-09-09T15:04:12;93184.56;;;25.50;48.22
40592;BME280;26301;42.832;23.918;2022-09-09T15:06:39;93223.81;;;25.61;48.93
40592;BME280;26301;42.832;23.918;2022-09-09T15:09:08;93239.28;;;25.71;49.21
40592;BME280;26301;42.832;23.918;2022-09-09T15:11:36;93228.97;;;25.57;48.26